sensor_id;sensor_type;location;lat;lon;timestamp;P1;durP1;ratioP1;P2;durP2;ratioP2
39848;SDS011;25518;47.878;15.914;2023-10-31T00:00:51;3.92;;;1.20;;
39848;SDS011;25518;47.878;15.914;2023-10-31T00:03:42;6.13;;;1.10;;
39848;SDS011;25518;47.878;15.914;2023-10-31T00:06:35;4.13;;;1.02;;
39848;SDS011;25518;47.878;15.914;2023-10-31T00:09:26;3.25;;;0.90;;
39848;SDS011;25518;47.878;15.914;2023-10-31T00:12:17;3.10;;;0.90;;
39848;SDS011;25518;47.878;15.914;2023-10-31T00:15:09;3.88;;;0.90;;
39848;SDS011;25518;47.878;15.914;2023-10-31T00:18:00;3.47;;;0.90;;
39848;SDS011;25518;47.878;15.914;2023-10-31T00:20:51;3.20;;;0.73;;
39848;SDS011;25518;47.878;15.914;2023-10-31T00:23:43;2.60;;;0.82;;
39848;SDS011;25518;47.878;15.914;2023-10-31T00:26:35;4.38;;;1.30;;
39848;SDS011;25518;47.878;15.914;2023-10-31T00:29:27;3.43;;;1.03;;
39848;SDS011;25518;47.878;15.914;2023-10-31T00:32:18;3.58;;;0.85;;
39848;SDS011;25518;47.878;15.914;2023-10-31T00:35:09;5.40;;;1.00;;
39848;SDS011;25518;47.878;15.914;2023-10-31T00:38:03;4.00;;;0.90;;
39848;SDS011;25518;47.878;15.914;2023-10-31T00:40:54;2.65;;;1.25;;
39848;SDS011;25518;47.878;15.914;2023-10-31T00:43:45;3.08;;;0.80;;
39848;SDS011;25518;47.878;15.914;2023-10-31T00:46:36;4.28;;;1.23;;
39848;SDS011;25518;47.878;15.914;2023-10-31T00:49:28;3.78;;;0.90;;
39848;SDS011;25518;47.878;15.914;2023-10-31T00:52:19;3.83;;;1.30;;
39848;SDS011;25518;47.878;15.914;2023-10-31T00:55:10;3.28;;;1.00;;
39848;SDS011;25518;47.878;15.914;2023-10-31T00:58:02;4.35;;;0.88;;
39848;SDS011;25518;47.878;15.914;2023-10-31T01:00:53;3.03;;;0.93;;
39848;SDS011;25518;47.878;15.914;2023-10-31T01:03:44;4.60;;;1.30;;
39848;SDS011;25518;47.878;15.914;2023-10-31T01:06:43;4.72;;;1.35;;
39848;SDS011;25518;47.878;15.914;2023-10-31T01:09:34;3.03;;;1.30;;
39848;SDS011;25518;47.878;15.914;2023-10-31T01:12:25;3.63;;;1.35;;
39848;SDS011;25518;47.878;15.914;2023-10-31T01:15:18;4.60;;;0.98;;
39848;SDS011;25518;47.878;15.914;2023-10-31T01:18:09;1.75;;;0.90;;
39848;SDS011;25518;47.878;15.914;2023-10-31T01:21:00;3.65;;;0.80;;
39848;SDS011;25518;47.878;15.914;2023-10-31T01:23:52;5.63;;;1.67;;
39848;SDS011;25518;47.878;15.914;2023-10-31T01:26:43;2.60;;;0.98;;
39848;SDS011;25518;47.878;15.914;2023-10-31T01:29:34;4.15;;;1.10;;
39848;SDS011;25518;47.878;15.914;2023-10-31T01:32:25;3.55;;;1.05;;
39848;SDS011;25518;47.878;15.914;2023-10-31T01:35:17;5.20;;;1.30;;
39848;SDS011;25518;47.878;15.914;2023-10-31T01:38:08;6.10;;;1.10;;
39848;SDS011;25518;47.878;15.914;2023-10-31T01:40:59;3.72;;;1.30;;
39848;SDS011;25518;47.878;15.914;2023-10-31T01:43:50;3.95;;;1.27;;
39848;SDS011;25518;47.878;15.914;2023-10-31T01:46:42;2.83;;;1.05;;
39848;SDS011;25518;47.878;15.914;2023-10-31T01:49:34;4.13;;;1.10;;
39848;SDS011;25518;47.878;15.914;2023-10-31T01:52:27;3.67;;;1.38;;
39848;SDS011;25518;47.878;15.914;2023-10-31T01:55:20;3.92;;;1.27;;
39848;SDS011;25518;47.878;15.914;2023-10-31T01:58:12;2.92;;;1.05;;
39848;SDS011;25518;47.878;15.914;2023-10-31T02:01:05;2.78;;;1.02;;
39848;SDS011;25518;47.878;15.914;2023-10-31T02:03:57;2.67;;;0.90;;
39848;SDS011;25518;47.878;15.914;2023-10-31T02:06:49;1.95;;;1.08;;
39848;SDS011;25518;47.878;15.914;2023-10-31T02:09:40;4.40;;;1.15;;
39848;SDS011;25518;47.878;15.914;2023-10-31T02:12:33;5.15;;;1.75;;
39848;SDS011;25518;47.878;15.914;2023-10-31T02:15:26;4.40;;;0.95;;
39848;SDS011;25518;47.878;15.914;2023-10-31T02:18:17;4.22;;;0.80;;
39848;SDS011;25518;47.878;15.914;2023-10-31T02:21:09;4.00;;;0.80;;
39848;SDS011;25518;47.878;15.914;2023-10-31T02:24:01;2.90;;;0.90;;
39848;SDS011;25518;47.878;15.914;2023-10-31T02:26:53;1.88;;;0.60;;
39848;SDS011;25518;47.878;15.914;2023-10-31T02:29:45;3.63;;;1.02;;
39848;SDS011;25518;47.878;15.914;2023-10-31T02:32:36;2.75;;;0.80;;
39848;SDS011;25518;47.878;15.914;2023-10-31T02:35:28;7.93;;;1.30;;
39848;SDS011;25518;47.878;15.914;2023-10-31T02:38:19;4.22;;;0.82;;
39848;SDS011;25518;47.878;15.914;2023-10-31T02:41:10;4.20;;;1.58;;
39848;SDS011;25518;47.878;15.914;2023-10-31T02:44:02;3.42;;;1.00;;
39848;SDS011;25518;47.878;15.914;2023-10-31T02:46:54;5.95;;;1.10;;
39848;SDS011;25518;47.878;15.914;2023-10-31T02:49:46;2.47;;;0.73;;
39848;SDS011;25518;47.878;15.914;2023-10-31T02:52:37;1.97;;;0.87;;
39848;SDS011;25518;47.878;15.914;2023-10-31T02:55:28;3.83;;;0.90;;
39848;SDS011;25518;47.878;15.914;2023-10-31T02:58:19;1.80;;;0.70;;
39848;SDS011;25518;47.878;15.914;2023-10-31T03:01:11;2.72;;;0.90;;
39848;SDS011;25518;47.878;15.914;2023-10-31T03:04:02;1.93;;;0.70;;
39848;SDS011;25518;47.878;15.914;2023-10-31T03:06:54;1.67;;;0.60;;
39848;SDS011;25518;47.878;15.914;2023-10-31T03:09:45;2.25;;;0.70;;
39848;SDS011;25518;47.878;15.914;2023-10-31T03:12:36;3.03;;;0.70;;
39848;SDS011;25518;47.878;15.914;2023-10-31T03:15:27;2.15;;;0.82;;
39848;SDS011;25518;47.878;15.914;2023-10-31T03:18:19;2.40;;;0.60;;
39848;SDS011;25518;47.878;15.914;2023-10-31T03:21:10;1.83;;;0.52;;
39848;SDS011;25518;47.878;15.914;2023-10-31T03:24:01;1.42;;;0.55;;
39848;SDS011;25518;47.878;15.914;2023-10-31T03:26:53;1.77;;;0.70;;
39848;SDS011;25518;47.878;15.914;2023-10-31T03:29:45;1.52;;;0.50;;
39848;SDS011;25518;47.878;15.914;2023-10-31T03:32:36;1.25;;;0.50;;
39848;SDS011;25518;47.878;15.914;2023-10-31T03:35:28;2.33;;;0.90;;
39848;SDS011;25518;47.878;15.914;2023-10-31T03:38:19;2.67;;;0.80;;
39848;SDS011;25518;47.878;15.914;2023-10-31T03:41:10;4.75;;;0.93;;
39848;SDS011;25518;47.878;15.914;2023-10-31T03:44:01;1.98;;;0.90;;
39848;SDS011;25518;47.878;15.914;2023-10-31T03:46:53;1.63;;;0.80;;
39848;SDS011;25518;47.878;15.914;2023-10-31T03:49:44;3.50;;;0.60;;
39848;SDS011;25518;47.878;15.914;2023-10-31T03:52:35;1.13;;;0.52;;
39848;SDS011;25518;47.878;15.914;2023-10-31T03:55:27;1.30;;;0.50;;
39848;SDS011;25518;47.878;15.914;2023-10-31T03:58:18;2.78;;;0.40;;
39848;SDS011;25518;47.878;15.914;2023-10-31T04:01:09;0.60;;;0.22;;
39848;SDS011;25518;47.878;15.914;2023-10-31T04:04:00;2.00;;;0.38;;
39848;SDS011;25518;47.878;15.914;2023-10-31T04:06:53;0.32;;;0.17;;
39848;SDS011;25518;47.878;15.914;2023-10-31T04:09:44;0.32;;;0.20;;
39848;SDS011;25518;47.878;15.914;2023-10-31T04:12:36;0.47;;;0.10;;
39848;SDS011;25518;47.878;15.914;2023-10-31T04:15:27;0.30;;;0.13;;
39848;SDS011;25518;47.878;15.914;2023-10-31T04:18:18;0.40;;;0.20;;
39848;SDS011;25518;47.878;15.914;2023-10-31T04:21:10;1.20;;;0.15;;
39848;SDS011;25518;47.878;15.914;2023-10-31T04:24:01;0.00;;;0.00;;
39848;SDS011;25518;47.878;15.914;2023-10-31T04:26:52;0.00;;;0.00;;
39848;SDS011;25518;47.878;15.914;2023-10-31T04:29:44;0.08;;;0.08;;
39848;SDS011;25518;47.878;15.914;2023-10-31T04:32:36;0.43;;;0.10;;
39848;SDS011;25518;47.878;15.914;2023-10-31T04:35:27;0.40;;;0.30;;
39848;SDS011;25518;47.878;15.914;2023-10-31T04:38:18;1.63;;;0.60;;
39848;SDS011;25518;47.878;15.914;2023-10-31T04:41:10;1.40;;;0.50;;
39848;SDS011;25518;47.878;15.914;2023-10-31T04:44:01;1.80;;;0.20;;
39848;SDS011;25518;47.878;15.914;2023-10-31T04:46:53;0.45;;;0.15;;
39848;SDS011;25518;47.878;15.914;2023-10-31T04:49:44;0.20;;;0.10;;
39848;SDS011;25518;47.878;15.914;2023-10-31T04:52:36;0.22;;;0.17;;
39848;SDS011;25518;47.878;15.914;2023-10-31T04:55:27;0.10;;;0.10;;
39848;SDS011;25518;47.878;15.914;2023-10-31T04:58:18;0.10;;;0.08;;
39848;SDS011;25518;47.878;15.914;2023-10-31T05:01:11;0.20;;;0.00;;
39848;SDS011;25518;47.878;15.914;2023-10-31T05:04:03;0.80;;;0.22;;
39848;SDS011;25518;47.878;15.914;2023-10-31T05:06:55;0.05;;;0.05;;
39848;SDS011;25518;47.878;15.914;2023-10-31T05:09:46;0.00;;;0.00;;
39848;SDS011;25518;47.878;15.914;2023-10-31T05:12:37;0.10;;;0.10;;
39848;SDS011;25518;47.878;15.914;2023-10-31T05:15:29;0.05;;;0.00;;
39848;SDS011;25518;47.878;15.914;2023-10-31T05:18:20;0.00;;;0.00;;
39848;SDS011;25518;47.878;15.914;2023-10-31T05:21:11;0.10;;;0.00;;
39848;SDS011;25518;47.878;15.914;2023-10-31T05:24:03;0.50;;;0.00;;
39848;SDS011;25518;47.878;15.914;2023-10-31T05:26:54;0.35;;;0.10;;
39848;SDS011;25518;47.878;15.914;2023-10-31T05:29:47;0.10;;;0.10;;
39848;SDS011;25518;47.878;15.914;2023-10-31T05:32:38;0.25;;;0.05;;
39848;SDS011;25518;47.878;15.914;2023-10-31T05:35:29;0.80;;;0.10;;
39848;SDS011;25518;47.878;15.914;2023-10-31T05:38:21;0.05;;;0.05;;
39848;SDS011;25518;47.878;15.914;2023-10-31T05:41:12;0.03;;;0.03;;
39848;SDS011;25518;47.878;15.914;2023-10-31T05:44:04;0.20;;;0.00;;
39848;SDS011;25518;47.878;15.914;2023-10-31T05:46:55;0.00;;;0.00;;
39848;SDS011;25518;47.878;15.914;2023-10-31T05:49:47;0.10;;;0.00;;
39848;SDS011;25518;47.878;15.914;2023-10-31T05:52:38;0.10;;;0.00;;
39848;SDS011;25518;47.878;15.914;2023-10-31T05:55:29;0.00;;;0.00;;
39848;SDS011;25518;47.878;15.914;2023-10-31T05:58:21;0.10;;;0.00;;
39848;SDS011;25518;47.878;15.914;2023-10-31T06:01:12;0.10;;;0.10;;
39848;SDS011;25518;47.878;15.914;2023-10-31T06:04:04;0.00;;;0.00;;
39848;SDS011;25518;47.878;15.914;2023-10-31T06:06:55;0.30;;;0.10;;
39848;SDS011;25518;47.878;15.914;2023-10-31T06:09:47;0.65;;;0.28;;
39848;SDS011;25518;47.878;15.914;2023-10-31T06:12:38;1.10;;;0.55;;
39848;SDS011;25518;47.878;15.914;2023-10-31T06:15:29;0.13;;;0.10;;
39848;SDS011;25518;47.878;15.914;2023-10-31T06:18:21;0.50;;;0.10;;
39848;SDS011;25518;47.878;15.914;2023-10-31T06:21:12;0.17;;;0.10;;
39848;SDS011;25518;47.878;15.914;2023-10-31T06:24:04;0.00;;;0.00;;
39848;SDS011;25518;47.878;15.914;2023-10-31T06:26:56;0.00;;;0.00;;
39848;SDS011;25518;47.878;15.914;2023-10-31T06:29:47;0.20;;;0.10;;
39848;SDS011;25518;47.878;15.914;2023-10-31T06:32:38;0.00;;;0.00;;
39848;SDS011;25518;47.878;15.914;2023-10-31T06:35:31;0.00;;;0.00;;
39848;SDS011;25518;47.878;15.914;2023-10-31T06:38:22;0.00;;;0.00;;
39848;SDS011;25518;47.878;15.914;2023-10-31T06:41:13;0.00;;;0.00;;
39848;SDS011;25518;47.878;15.914;2023-10-31T06:44:05;0.28;;;0.10;;
39848;SDS011;25518;47.878;15.914;2023-10-31T06:46:56;0.20;;;0.08;;
39848;SDS011;25518;47.878;15.914;2023-10-31T06:49:48;0.50;;;0.20;;
39848;SDS011;25518;47.878;15.914;2023-10-31T06:52:39;0.10;;;0.10;;
39848;SDS011;25518;47.878;15.914;2023-10-31T06:55:30;0.00;;;0.00;;
39848;SDS011;25518;47.878;15.914;2023-10-31T06:58:21;0.00;;;0.00;;
39848;SDS011;25518;47.878;15.914;2023-10-31T07:01:13;0.00;;;0.00;;
39848;SDS011;25518;47.878;15.914;2023-10-31T07:04:08;0.00;;;0.00;;
39848;SDS011;25518;47.878;15.914;2023-10-31T07:07:00;0.10;;;0.10;;
39848;SDS011;25518;47.878;15.914;2023-10-31T07:09:52;0.30;;;0.20;;
39848;SDS011;25518;47.878;15.914;2023-10-31T07:12:43;0.10;;;0.10;;
39848;SDS011;25518;47.878;15.914;2023-10-31T07:15:34;0.80;;;0.10;;
39848;SDS011;25518;47.878;15.914;2023-10-31T07:18:29;0.00;;;0.00;;
39848;SDS011;25518;47.878;15.914;2023-10-31T07:21:20;0.03;;;0.00;;
39848;SDS011;25518;47.878;15.914;2023-10-31T07:24:12;0.00;;;0.00;;
39848;SDS011;25518;47.878;15.914;2023-10-31T07:27:03;0.50;;;0.10;;
39848;SDS011;25518;47.878;15.914;2023-10-31T07:29:58;0.30;;;0.10;;
39848;SDS011;25518;47.878;15.914;2023-10-31T07:32:50;0.00;;;0.00;;
39848;SDS011;25518;47.878;15.914;2023-10-31T07:35:42;0.00;;;0.00;;
39848;SDS011;25518;47.878;15.914;2023-10-31T07:38:33;1.05;;;0.43;;
39848;SDS011;25518;47.878;15.914;2023-10-31T07:41:26;2.97;;;0.83;;
39848;SDS011;25518;47.878;15.914;2023-10-31T07:44:17;0.00;;;0.00;;
39848;SDS011;25518;47.878;15.914;2023-10-31T07:47:08;0.00;;;0.00;;
39848;SDS011;25518;47.878;15.914;2023-10-31T07:49:59;0.10;;;0.00;;
39848;SDS011;25518;47.878;15.914;2023-10-31T07:52:51;0.20;;;0.10;;
39848;SDS011;25518;47.878;15.914;2023-10-31T07:55:43;0.40;;;0.20;;
39848;SDS011;25518;47.878;15.914;2023-10-31T07:58:35;1.77;;;0.77;;
39848;SDS011;25518;47.878;15.914;2023-10-31T08:01:26;0.07;;;0.03;;
39848;SDS011;25518;47.878;15.914;2023-10-31T08:04:18;0.47;;;0.28;;
39848;SDS011;25518;47.878;15.914;2023-10-31T08:07:09;0.22;;;0.13;;
39848;SDS011;25518;47.878;15.914;2023-10-31T08:10:01;0.00;;;0.00;;
39848;SDS011;25518;47.878;15.914;2023-10-31T08:12:54;0.80;;;0.20;;
39848;SDS011;25518;47.878;15.914;2023-10-31T08:15:45;3.50;;;1.05;;
39848;SDS011;25518;47.878;15.914;2023-10-31T08:18:36;7.60;;;2.08;;
39848;SDS011;25518;47.878;15.914;2023-10-31T08:21:28;5.28;;;1.75;;
39848;SDS011;25518;47.878;15.914;2023-10-31T08:24:24;9.05;;;3.17;;
39848;SDS011;25518;47.878;15.914;2023-10-31T08:27:15;8.17;;;2.30;;
39848;SDS011;25518;47.878;15.914;2023-10-31T08:30:07;7.97;;;2.60;;
39848;SDS011;25518;47.878;15.914;2023-10-31T08:32:59;2.17;;;0.80;;
39848;SDS011;25518;47.878;15.914;2023-10-31T08:35:50;0.65;;;0.30;;
39848;SDS011;25518;47.878;15.914;2023-10-31T08:38:41;0.70;;;0.30;;
39848;SDS011;25518;47.878;15.914;2023-10-31T08:41:32;4.72;;;1.52;;
39848;SDS011;25518;47.878;15.914;2023-10-31T08:44:24;3.35;;;0.80;;
39848;SDS011;25518;47.878;15.914;2023-10-31T08:47:15;2.13;;;0.80;;
39848;SDS011;25518;47.878;15.914;2023-10-31T08:50:08;0.15;;;0.10;;
39848;SDS011;25518;47.878;15.914;2023-10-31T08:53:01;0.30;;;0.25;;
39848;SDS011;25518;47.878;15.914;2023-10-31T08:55:53;0.50;;;0.20;;
39848;SDS011;25518;47.878;15.914;2023-10-31T08:58:44;1.35;;;0.30;;
39848;SDS011;25518;47.878;15.914;2023-10-31T09:01:35;0.90;;;0.50;;
39848;SDS011;25518;47.878;15.914;2023-10-31T09:04:26;1.25;;;0.30;;
39848;SDS011;25518;47.878;15.914;2023-10-31T09:07:18;1.67;;;0.38;;
39848;SDS011;25518;47.878;15.914;2023-10-31T09:10:09;0.30;;;0.20;;
39848;SDS011;25518;47.878;15.914;2023-10-31T09:13:02;0.93;;;0.20;;
39848;SDS011;25518;47.878;15.914;2023-10-31T09:15:53;0.27;;;0.27;;
39848;SDS011;25518;47.878;15.914;2023-10-31T09:18:44;0.38;;;0.20;;
39848;SDS011;25518;47.878;15.914;2023-10-31T09:21:37;0.43;;;0.20;;
39848;SDS011;25518;47.878;15.914;2023-10-31T09:24:28;1.50;;;0.10;;
39848;SDS011;25518;47.878;15.914;2023-10-31T09:27:20;0.50;;;0.20;;
39848;SDS011;25518;47.878;15.914;2023-10-31T09:30:11;0.40;;;0.20;;
39848;SDS011;25518;47.878;15.914;2023-10-31T09:33:02;0.22;;;0.17;;
39848;SDS011;25518;47.878;15.914;2023-10-31T09:35:53;0.55;;;0.20;;
39848;SDS011;25518;47.878;15.914;2023-10-31T09:38:45;1.30;;;0.20;;
39848;SDS011;25518;47.878;15.914;2023-10-31T09:41:36;0.27;;;0.10;;
39848;SDS011;25518;47.878;15.914;2023-10-31T09:44:27;0.35;;;0.20;;
39848;SDS011;25518;47.878;15.914;2023-10-31T09:47:19;1.50;;;0.32;;
39848;SDS011;25518;47.878;15.914;2023-10-31T09:50:11;0.05;;;0.05;;
39848;SDS011;25518;47.878;15.914;2023-10-31T09:53:02;0.10;;;0.10;;
39848;SDS011;25518;47.878;15.914;2023-10-31T09:55:57;0.30;;;0.10;;
39848;SDS011;25518;47.878;15.914;2023-10-31T09:58:49;0.20;;;0.10;;
39848;SDS011;25518;47.878;15.914;2023-10-31T10:01:40;0.50;;;0.20;;
39848;SDS011;25518;47.878;15.914;2023-10-31T10:04:32;1.40;;;0.30;;
39848;SDS011;25518;47.878;15.914;2023-10-31T10:07:25;0.20;;;0.20;;
39848;SDS011;25518;47.878;15.914;2023-10-31T10:10:17;0.60;;;0.10;;
39848;SDS011;25518;47.878;15.914;2023-10-31T10:13:09;1.37;;;0.30;;
39848;SDS011;25518;47.878;15.914;2023-10-31T10:16:02;0.55;;;0.20;;
39848;SDS011;25518;47.878;15.914;2023-10-31T10:18:53;1.40;;;0.57;;
39848;SDS011;25518;47.878;15.914;2023-10-31T10:21:46;0.75;;;0.35;;
39848;SDS011;25518;47.878;15.914;2023-10-31T10:24:44;1.30;;;0.10;;
39848;SDS011;25518;47.878;15.914;2023-10-31T10:27:35;0.45;;;0.20;;
39848;SDS011;25518;47.878;15.914;2023-10-31T10:30:26;0.90;;;0.20;;
39848;SDS011;25518;47.878;15.914;2023-10-31T10:33:19;1.80;;;0.30;;
39848;SDS011;25518;47.878;15.914;2023-10-31T10:36:11;0.20;;;0.20;;
39848;SDS011;25518;47.878;15.914;2023-10-31T10:39:04;0.70;;;0.20;;
39848;SDS011;25518;47.878;15.914;2023-10-31T10:41:57;0.70;;;0.20;;
39848;SDS011;25518;47.878;15.914;2023-10-31T10:44:52;0.70;;;0.20;;
39848;SDS011;25518;47.878;15.914;2023-10-31T10:47:49;0.20;;;0.20;;
39848;SDS011;25518;47.878;15.914;2023-10-31T10:50:42;0.30;;;0.10;;
39848;SDS011;25518;47.878;15.914;2023-10-31T10:53:41;3.30;;;0.30;;
39848;SDS011;25518;47.878;15.914;2023-10-31T10:56:44;0.32;;;0.10;;
39848;SDS011;25518;47.878;15.914;2023-10-31T10:59:43;0.20;;;0.10;;
39848;SDS011;25518;47.878;15.914;2023-10-31T11:02:43;0.30;;;0.10;;
39848;SDS011;25518;47.878;15.914;2023-10-31T11:05:36;1.10;;;0.20;;
39848;SDS011;25518;47.878;15.914;2023-10-31T11:08:27;0.60;;;0.35;;
39848;SDS011;25518;47.878;15.914;2023-10-31T11:11:20;0.00;;;0.00;;
39848;SDS011;25518;47.878;15.914;2023-10-31T11:14:13;0.10;;;0.10;;
39848;SDS011;25518;47.878;15.914;2023-10-31T11:17:09;1.00;;;0.20;;
39848;SDS011;25518;47.878;15.914;2023-10-31T11:20:09;0.20;;;0.10;;
39848;SDS011;25518;47.878;15.914;2023-10-31T11:23:04;0.40;;;0.10;;
39848;SDS011;25518;47.878;15.914;2023-10-31T11:25:57;0.60;;;0.20;;
39848;SDS011;25518;47.878;15.914;2023-10-31T11:28:50;0.50;;;0.20;;
39848;SDS011;25518;47.878;15.914;2023-10-31T11:31:42;1.00;;;0.10;;
39848;SDS011;25518;47.878;15.914;2023-10-31T11:34:33;0.17;;;0.15;;
39848;SDS011;25518;47.878;15.914;2023-10-31T11:37:32;1.50;;;0.10;;
39848;SDS011;25518;47.878;15.914;2023-10-31T11:40:25;0.20;;;0.20;;
39848;SDS011;25518;47.878;15.914;2023-10-31T11:43:16;0.10;;;0.05;;
39848;SDS011;25518;47.878;15.914;2023-10-31T11:46:27;0.20;;;0.10;;
39848;SDS011;25518;47.878;15.914;2023-10-31T11:49:49;0.50;;;0.00;;
39848;SDS011;25518;47.878;15.914;2023-10-31T11:52:39;0.10;;;0.00;;
39848;SDS011;25518;47.878;15.914;2023-10-31T11:55:31;0.00;;;0.00;;
39848;SDS011;25518;47.878;15.914;2023-10-31T11:58:24;0.03;;;0.03;;
39848;SDS011;25518;47.878;15.914;2023-10-31T12:01:16;0.40;;;0.13;;
39848;SDS011;25518;47.878;15.914;2023-10-31T12:04:07;0.47;;;0.22;;
39848;SDS011;25518;47.878;15.914;2023-10-31T12:06:59;0.90;;;0.20;;
39848;SDS011;25518;47.878;15.914;2023-10-31T12:09:51;1.13;;;0.00;;
39848;SDS011;25518;47.878;15.914;2023-10-31T12:12:42;0.00;;;0.00;;
39848;SDS011;25518;47.878;15.914;2023-10-31T12:15:34;0.15;;;0.00;;
39848;SDS011;25518;47.878;15.914;2023-10-31T12:18:25;0.10;;;0.00;;
39848;SDS011;25518;47.878;15.914;2023-10-31T12:21:16;0.10;;;0.10;;
39848;SDS011;25518;47.878;15.914;2023-10-31T12:24:08;0.47;;;0.10;;
39848;SDS011;25518;47.878;15.914;2023-10-31T12:27:01;0.10;;;0.00;;
39848;SDS011;25518;47.878;15.914;2023-10-31T12:30:00;0.00;;;0.00;;
39848;SDS011;25518;47.878;15.914;2023-10-31T12:32:54;0.13;;;0.00;;
39848;SDS011;25518;47.878;15.914;2023-10-31T12:35:47;0.40;;;0.10;;
39848;SDS011;25518;47.878;15.914;2023-10-31T12:38:40;0.03;;;0.00;;
39848;SDS011;25518;47.878;15.914;2023-10-31T12:41:32;0.10;;;0.00;;
39848;SDS011;25518;47.878;15.914;2023-10-31T12:44:24;0.30;;;0.10;;
39848;SDS011;25518;47.878;15.914;2023-10-31T12:47:21;1.60;;;0.32;;
39848;SDS011;25518;47.878;15.914;2023-10-31T12:50:13;0.00;;;0.00;;
39848;SDS011;25518;47.878;15.914;2023-10-31T12:53:07;0.30;;;0.20;;
39848;SDS011;25518;47.878;15.914;2023-10-31T12:55:59;0.00;;;0.00;;
39848;SDS011;25518;47.878;15.914;2023-10-31T12:58:56;0.00;;;0.00;;
39848;SDS011;25518;47.878;15.914;2023-10-31T13:01:49;0.10;;;0.10;;
39848;SDS011;25518;47.878;15.914;2023-10-31T13:04:40;5.82;;;1.15;;
39848;SDS011;25518;47.878;15.914;2023-10-31T13:07:31;0.00;;;0.00;;
39848;SDS011;25518;47.878;15.914;2023-10-31T13:10:23;0.00;;;0.00;;
39848;SDS011;25518;47.878;15.914;2023-10-31T13:13:15;4.10;;;0.80;;
39848;SDS011;25518;47.878;15.914;2023-10-31T13:16:07;0.15;;;0.00;;
39848;SDS011;25518;47.878;15.914;2023-10-31T13:18:58;0.00;;;0.00;;
39848;SDS011;25518;47.878;15.914;2023-10-31T13:21:49;0.00;;;0.00;;
39848;SDS011;25518;47.878;15.914;2023-10-31T13:24:41;0.00;;;0.00;;
39848;SDS011;25518;47.878;15.914;2023-10-31T13:27:33;0.20;;;0.03;;
39848;SDS011;25518;47.878;15.914;2023-10-31T13:30:26;1.40;;;0.00;;
39848;SDS011;25518;47.878;15.914;2023-10-31T13:33:17;1.60;;;0.50;;
39848;SDS011;25518;47.878;15.914;2023-10-31T13:36:08;0.10;;;0.10;;
39848;SDS011;25518;47.878;15.914;2023-10-31T15:38:12;0.10;;;0.10;;
39848;SDS011;25518;47.878;15.914;2023-10-31T15:41:05;0.45;;;0.20;;
39848;SDS011;25518;47.878;15.914;2023-10-31T15:43:57;0.80;;;0.30;;
39848;SDS011;25518;47.878;15.914;2023-10-31T15:46:48;1.15;;;0.40;;
39848;SDS011;25518;47.878;15.914;2023-10-31T15:49:39;0.95;;;0.22;;
39848;SDS011;25518;47.878;15.914;2023-10-31T15:52:30;0.70;;;0.30;;
39848;SDS011;25518;47.878;15.914;2023-10-31T15:55:22;1.73;;;0.77;;
39848;SDS011;25518;47.878;15.914;2023-10-31T15:58:13;0.85;;;0.35;;
39848;SDS011;25518;47.878;15.914;2023-10-31T16:01:04;1.23;;;0.40;;
39848;SDS011;25518;47.878;15.914;2023-10-31T16:03:56;0.57;;;0.20;;
39848;SDS011;25518;47.878;15.914;2023-10-31T16:06:47;1.10;;;0.25;;
39848;SDS011;25518;47.878;15.914;2023-10-31T16:09:38;0.75;;;0.30;;
39848;SDS011;25518;47.878;15.914;2023-10-31T16:12:30;0.80;;;0.30;;
39848;SDS011;25518;47.878;15.914;2023-10-31T16:15:21;0.50;;;0.20;;
39848;SDS011;25518;47.878;15.914;2023-10-31T16:18:23;0.40;;;0.20;;
39848;SDS011;25518;47.878;15.914;2023-10-31T16:21:22;0.40;;;0.15;;
39848;SDS011;25518;47.878;15.914;2023-10-31T16:24:14;0.10;;;0.10;;
39848;SDS011;25518;47.878;15.914;2023-10-31T16:27:05;1.20;;;0.10;;
39848;SDS011;25518;47.878;15.914;2023-10-31T16:29:56;0.90;;;0.20;;
39848;SDS011;25518;47.878;15.914;2023-10-31T16:32:48;1.02;;;0.40;;
39848;SDS011;25518;47.878;15.914;2023-10-31T16:35:40;0.60;;;0.30;;
39848;SDS011;25518;47.878;15.914;2023-10-31T16:38:31;1.55;;;0.20;;
39848;SDS011;25518;47.878;15.914;2023-10-31T16:41:23;0.70;;;0.30;;
39848;SDS011;25518;47.878;15.914;2023-10-31T16:44:14;3.13;;;0.98;;
39848;SDS011;25518;47.878;15.914;2023-10-31T16:47:06;0.90;;;0.32;;
39848;SDS011;25518;47.878;15.914;2023-10-31T16:49:57;0.73;;;0.20;;
39848;SDS011;25518;47.878;15.914;2023-10-31T16:52:48;0.85;;;0.30;;
39848;SDS011;25518;47.878;15.914;2023-10-31T16:55:40;1.58;;;0.70;;
39848;SDS011;25518;47.878;15.914;2023-10-31T16:58:32;0.80;;;0.30;;
39848;SDS011;25518;47.878;15.914;2023-10-31T17:01:23;0.38;;;0.30;;
39848;SDS011;25518;47.878;15.914;2023-10-31T17:04:14;0.30;;;0.20;;
39848;SDS011;25518;47.878;15.914;2023-10-31T17:07:07;0.90;;;0.20;;
39848;SDS011;25518;47.878;15.914;2023-10-31T17:09:58;1.02;;;0.43;;
39848;SDS011;25518;47.878;15.914;2023-10-31T17:12:49;0.70;;;0.38;;
39848;SDS011;25518;47.878;15.914;2023-10-31T17:15:41;0.40;;;0.20;;
39848;SDS011;25518;47.878;15.914;2023-10-31T17:18:32;2.40;;;0.70;;
39848;SDS011;25518;47.878;15.914;2023-10-31T17:21:23;2.00;;;0.77;;
39848;SDS011;25518;47.878;15.914;2023-10-31T17:24:15;0.95;;;0.50;;
39848;SDS011;25518;47.878;15.914;2023-10-31T17:27:06;2.20;;;0.40;;
39848;SDS011;25518;47.878;15.914;2023-10-31T17:29:58;2.97;;;0.50;;
39848;SDS011;25518;47.878;15.914;2023-10-31T17:32:49;1.20;;;0.40;;
39848;SDS011;25518;47.878;15.914;2023-10-31T17:35:41;1.10;;;0.60;;
39848;SDS011;25518;47.878;15.914;2023-10-31T17:38:32;1.45;;;0.30;;
39848;SDS011;25518;47.878;15.914;2023-10-31T17:41:23;0.85;;;0.35;;
39848;SDS011;25518;47.878;15.914;2023-10-31T17:44:15;0.73;;;0.33;;
39848;SDS011;25518;47.878;15.914;2023-10-31T17:47:06;2.40;;;1.05;;
39848;SDS011;25518;47.878;15.914;2023-10-31T17:49:57;1.10;;;0.55;;
39848;SDS011;25518;47.878;15.914;2023-10-31T17:52:48;3.20;;;0.90;;
39848;SDS011;25518;47.878;15.914;2023-10-31T17:55:41;2.13;;;0.70;;
39848;SDS011;25518;47.878;15.914;2023-10-31T17:58:32;2.90;;;0.50;;
39848;SDS011;25518;47.878;15.914;2023-10-31T18:01:24;1.15;;;0.50;;
39848;SDS011;25518;47.878;15.914;2023-10-31T18:04:15;0.80;;;0.52;;
39848;SDS011;25518;47.878;15.914;2023-10-31T18:07:07;1.60;;;0.30;;
39848;SDS011;25518;47.878;15.914;2023-10-31T18:09:59;1.30;;;0.60;;
39848;SDS011;25518;47.878;15.914;2023-10-31T18:12:50;0.93;;;0.30;;
39848;SDS011;25518;47.878;15.914;2023-10-31T18:15:42;1.25;;;0.47;;
39848;SDS011;25518;47.878;15.914;2023-10-31T18:18:33;1.83;;;0.35;;
39848;SDS011;25518;47.878;15.914;2023-10-31T18:21:24;4.63;;;0.80;;
39848;SDS011;25518;47.878;15.914;2023-10-31T18:24:16;0.30;;;0.20;;
39848;SDS011;25518;47.878;15.914;2023-10-31T18:27:07;3.47;;;0.90;;
39848;SDS011;25518;47.878;15.914;2023-10-31T18:29:58;1.08;;;0.30;;
39848;SDS011;25518;47.878;15.914;2023-10-31T18:32:50;0.82;;;0.35;;
39848;SDS011;25518;47.878;15.914;2023-10-31T18:35:41;0.80;;;0.35;;
39848;SDS011;25518;47.878;15.914;2023-10-31T18:38:32;1.95;;;0.50;;
39848;SDS011;25518;47.878;15.914;2023-10-31T18:41:25;0.82;;;0.30;;
39848;SDS011;25518;47.878;15.914;2023-10-31T18:44:19;2.63;;;0.57;;
39848;SDS011;25518;47.878;15.914;2023-10-31T18:47:10;1.35;;;0.50;;
39848;SDS011;25518;47.878;15.914;2023-10-31T18:50:01;2.50;;;0.60;;
39848;SDS011;25518;47.878;15.914;2023-10-31T18:52:53;2.50;;;0.52;;
39848;SDS011;25518;47.878;15.914;2023-10-31T18:55:44;2.37;;;0.60;;
39848;SDS011;25518;47.878;15.914;2023-10-31T18:58:35;1.58;;;1.08;;